Observation data for Tulia on 08/07/2020      Previous  Date  Next       Current Mesonet Observations  Soil Data  Daily Summary Page  Observations in Plain Language
KTIS 070500Z 21008KT 25/13 A3001 RMK A01 T02510126  RH  047%=      5-min Rain = 0
KTIS 070505Z 21008KT 25/13 A30 RMK A01 T02530125  RH  047%=      5-min Rain = 0
KTIS 070510Z 20008KT 25/13 A30 RMK A01 T02520127  RH  048%=      5-min Rain = 0
KTIS 070515Z 20007KT 25/13 A30 RMK A01 T02470127  RH  049%=      5-min Rain = 0
KTIS 070520Z 21007KT 25/13 A30 RMK A01 T02450129  RH  050%=      5-min Rain = 0
KTIS 070525Z 21008KT 25/13 A30 RMK A01 T02450128  RH  050%=      5-min Rain = 0
KTIS 070530Z 21008KT 25/13 A30 RMK A01 T02470128  RH  049%=      5-min Rain = 0
KTIS 070535Z 21008KT 25/13 A30 RMK A01 T02480129  RH  049%=      5-min Rain = 0
KTIS 070540Z 21008KT 25/13 A30 RMK A01 T02470129  RH  050%=      5-min Rain = 0
KTIS 070545Z 21008KT 25/13 A30 RMK A01 T02450128  RH  050%=      5-min Rain = 0
KTIS 070550Z 21008KT 25/13 A30 RMK A01 T02450129  RH  050%=      5-min Rain = 0
KTIS 070555Z 21007KT 25/13 A30 RMK A01 T02450130  RH  050%=      5-min Rain = 0
KTIS 070600Z 20007KT 24/13 A30 RMK A01 T02430130  RH  051%=      5-min Rain = 0
KTIS 070605Z 18007KT 24/13 A30 RMK A01 T02360129  RH  053%=      5-min Rain = 0
KTIS 070610Z 17007KT 23/13 A30 RMK A01 T02320131  RH  055%=      5-min Rain = 0
KTIS 070615Z 18006KT 23/13 A30 RMK A01 T02290132  RH  056%=      5-min Rain = 0
KTIS 070620Z 18007KT 23/13 A30 RMK A01 T02290130  RH  056%=      5-min Rain = 0
KTIS 070625Z 18007KT 23/13 A3001 RMK A01 T02290130  RH  056%=      5-min Rain = 0
KTIS 070630Z 18006KT 23/13 A3001 RMK A01 T02290131  RH  056%=      5-min Rain = 0
KTIS 070635Z 20005KT 23/13 A3001 RMK A01 T02290131  RH  056%=      5-min Rain = 0
KTIS 070640Z 20005KT 23/13 A3001 RMK A01 T02280131  RH  057%=      5-min Rain = 0
KTIS 070645Z 20007KT 23/13 A3001 RMK A01 T02280132  RH  057%=      5-min Rain = 0
KTIS 070650Z 19008KT 23/13 A3001 RMK A01 T02280131  RH  056%=      5-min Rain = 0
KTIS 070655Z 19009KT 23/13 A3001 RMK A01 T02310131  RH  055%=      5-min Rain = 0
KTIS 070700Z 19010KT 23/13 A30 RMK A01 T02320131  RH  055%=      5-min Rain = 0
KTIS 070705Z 19010KT 23/13 A30 RMK A01 T02330130  RH  054%=      5-min Rain = 0
KTIS 070710Z 19009KT 23/13 A30 RMK A01 T02340130  RH  054%=      5-min Rain = 0
KTIS 070715Z 20008KT 23/13 A30 RMK A01 T02330131  RH  055%=      5-min Rain = 0
KTIS 070720Z 20007KT 23/13 A30 RMK A01 T02340130  RH  054%=      5-min Rain = 0
KTIS 070725Z 20006KT 24/13 A3001 RMK A01 T02370129  RH  053%=      5-min Rain = 0
KTIS 070730Z 21006KT 24/13 A3001 RMK A01 T02380130  RH  053%=      5-min Rain = 0
KTIS 070735Z 21006KT 24/13 A3001 RMK A01 T02400128  RH  052%=      5-min Rain = 0
KTIS 070740Z 20006KT 24/13 A3001 RMK A01 T02390129  RH  052%=      5-min Rain = 0
KTIS 070745Z 20007KT 24/13 A3001 RMK A01 T02370129  RH  053%=      5-min Rain = 0
KTIS 070750Z 20007KT 24/13 A3001 RMK A01 T02370129  RH  053%=      5-min Rain = 0
KTIS 070755Z 20007KT 24/13 A3001 RMK A01 T02370129  RH  053%=      5-min Rain = 0
KTIS 070800Z 20008KT 24/13 A3001 RMK A01 T02390129  RH  052%=      5-min Rain = 0
KTIS 070805Z 20010KT 24/13 A30 RMK A01 T02420129  RH  051%=      5-min Rain = 0
KTIS 070810Z 20011KT 24/13 A30 RMK A01 T02440130  RH  051%=      5-min Rain = 0
KTIS 070815Z 20011KT 25/13 A30 RMK A01 T02450131  RH  051%=      5-min Rain = 0
KTIS 070820Z 20012KT 25/13 A30 RMK A01 T02460131  RH  051%=      5-min Rain = 0
KTIS 070825Z 20012KT 25/13 A30 RMK A01 T02460132  RH  051%=      5-min Rain = 0
KTIS 070830Z 20013KT 25/13 A30 RMK A01 T02480133  RH  051%=      5-min Rain = 0
KTIS 070835Z 20014KT 25/13 A30 RMK A01 T02490134  RH  051%=      5-min Rain = 0
KTIS 070840Z 19015KT 25/14 A30 RMK A01 T02500135  RH  051%=      5-min Rain = 0
KTIS 070845Z 19015KT 25/14 A30 RMK A01 T02510136  RH  051%=      5-min Rain = 0
KTIS 070850Z 20014KT 25/14 A30 RMK A01 T02500138  RH  052%=      5-min Rain = 0
KTIS 070855Z 20015KT 25/14 A30 RMK A01 T02490138  RH  052%=      5-min Rain = 0
KTIS 070900Z 20014KT 25/14 A30 RMK A01 T02490138  RH  052%=      5-min Rain = 0
KTIS 070905Z 20014KT 25/14 A30 RMK A01 T02480139  RH  053%=      5-min Rain = 0
KTIS 070910Z 20014KT 25/14 A30 RMK A01 T02470139  RH  053%=      5-min Rain = 0
KTIS 070915Z 20013KT 25/14 A30 RMK A01 T02460139  RH  054%=      5-min Rain = 0
KTIS 070920Z 20013KT 25/14 A30 RMK A01 T02460140  RH  054%=      5-min Rain = 0
KTIS 070925Z 20012G17KT 25/14 A30 RMK A01 T02460140  RH  054%=      5-min Rain = 0
KTIS 070930Z 20013KT 25/14 A30 RMK A01 T02460140  RH  054%=      5-min Rain = 0
KTIS 070935Z 20013KT 25/14 A30 RMK A01 T02460140  RH  054%=      5-min Rain = 0
KTIS 070940Z 20014KT 25/14 A30 RMK A01 T02460140  RH  054%=      5-min Rain = 0
KTIS 070945Z 20014G19KT 25/14 A30 RMK A01 T02470140  RH  054%=      5-min Rain = 0
KTIS 070950Z 21015KT 25/14 A30 RMK A01 T02480140  RH  053%=      5-min Rain = 0
KTIS 070955Z 20015G20KT 25/14 A30 RMK A01 T02480140  RH  053%=      5-min Rain = 0
KTIS 071000Z 21015G20KT 25/14 A2999 RMK A01 T02490140  RH  053%=      5-min Rain = 0
KTIS 071005Z 21016G21KT 25/14 A30 RMK A01 T02490140  RH  053%=      5-min Rain = 0
KTIS 071010Z 21015G20KT 25/14 A30 RMK A01 T02480141  RH  054%=      5-min Rain = 0
KTIS 071015Z 21015G21KT 25/14 A30 RMK A01 T02470141  RH  054%=      5-min Rain = 0
KTIS 071020Z 21014KT 25/14 A30 RMK A01 T02460141  RH  054%=      5-min Rain = 0
KTIS 071025Z 21016KT 25/14 A30 RMK A01 T02460141  RH  054%=      5-min Rain = 0
KTIS 071030Z 21014G19KT 25/14 A30 RMK A01 T02450142  RH  055%=      5-min Rain = 0
KTIS 071035Z 21016KT 25/14 A30 RMK A01 T02460142  RH  055%=      5-min Rain = 0
KTIS 071040Z 21015KT 25/14 A30 RMK A01 T02450142  RH  055%=      5-min Rain = 0
KTIS 071045Z 21016KT 25/14 A30 RMK A01 T02450143  RH  055%=      5-min Rain = 0
KTIS 071050Z 21016G21KT 25/14 A30 RMK A01 T02470143  RH  055%=      5-min Rain = 0
KTIS 071055Z 21017G22KT 25/14 A30 RMK A01 T02470143  RH  055%=      5-min Rain = 0
KTIS 071100Z 21016G22KT 25/14 A30 RMK A01 T02460144  RH  055%=      5-min Rain = 0
KTIS 071105Z 21016G21KT 25/14 A30 RMK A01 T02460144  RH  055%=      5-min Rain = 0
KTIS 071110Z 21015KT 25/14 A3001 RMK A01 T02450144  RH  056%=      5-min Rain = 0
KTIS 071115Z 21015G20KT 25/14 A3001 RMK A01 T02450144  RH  056%=      5-min Rain = 0
KTIS 071120Z 21014KT 25/15 A3001 RMK A01 T02450145  RH  056%=      5-min Rain = 0
KTIS 071125Z 21014KT 25/15 A3001 RMK A01 T02450145  RH  056%=      5-min Rain = 0
KTIS 071130Z 21014KT 24/15 A3001 RMK A01 T02430146  RH  057%=      5-min Rain = 0
KTIS 071135Z 21014KT 24/15 A3001 RMK A01 T02430146  RH  057%=      5-min Rain = 0
KTIS 071140Z 21013KT 24/15 A3001 RMK A01 T02420146  RH  058%=      5-min Rain = 0
KTIS 071145Z 21014KT 24/15 A3001 RMK A01 T02410147  RH  058%=      5-min Rain = 0
KTIS 071150Z 21014KT 24/15 A3001 RMK A01 T02400146  RH  058%=      5-min Rain = 0
KTIS 071155Z 21014KT 24/15 A3001 RMK A01 T02400146  RH  058%=      5-min Rain = 0
KTIS 071200Z 21013KT 24/15 A3002 RMK A01 T02390146  RH  058%=      5-min Rain = 0
KTIS 071205Z 21013KT 24/15 A3002 RMK A01 T02380146  RH  059%=      5-min Rain = 0
KTIS 071210Z 21012G17KT 24/15 A3002 RMK A01 T02370146  RH  059%=      5-min Rain = 0
KTIS 071215Z 21013KT 24/15 A3002 RMK A01 T02370146  RH  059%=      5-min Rain = 0
KTIS 071220Z 20011KT 24/15 A3002 RMK A01 T02350147  RH  060%=      5-min Rain = 0
KTIS 071225Z 21011KT 23/15 A3002 RMK A01 T02340147  RH  061%=      5-min Rain = 0
KTIS 071230Z 21011KT 23/15 A3003 RMK A01 T02340147  RH  061%=      5-min Rain = 0
KTIS 071235Z 21012KT 24/15 A3003 RMK A01 T02350147  RH  060%=      5-min Rain = 0
KTIS 071240Z 21011KT 24/15 A3003 RMK A01 T02350148  RH  061%=      5-min Rain = 0
KTIS 071245Z 21012KT 24/15 A3003 RMK A01 T02360148  RH  061%=      5-min Rain = 0
KTIS 071250Z 20011KT 24/15 A3003 RMK A01 T02360149  RH  061%=      5-min Rain = 0
KTIS 071255Z 21011KT 24/15 A3003 RMK A01 T02370150  RH  061%=      5-min Rain = 0
KTIS 071300Z 21012KT 24/15 A3003 RMK A01 T02370150  RH  061%=      5-min Rain = 0
KTIS 071305Z 21012KT 24/15 A3003 RMK A01 T02400151  RH  060%=      5-min Rain = 0
KTIS 071310Z 21014KT 24/15 A3003 RMK A01 T02440152  RH  059%=      5-min Rain = 0
KTIS 071315Z 21014G19KT 25/15 A3003 RMK A01 T02470153  RH  058%=      5-min Rain = 0
KTIS 071320Z 21015KT 25/15 A3003 RMK A01 T02480152  RH  058%=      5-min Rain = 0
KTIS 071325Z 21015KT 25/15 A3003 RMK A01 T02510154  RH  057%=      5-min Rain = 0
KTIS 071330Z 21015G21KT 25/16 A3004 RMK A01 T02540155  RH  057%=      5-min Rain = 0
KTIS 071335Z 21015KT 26/16 A3004 RMK A01 T02550155  RH  056%=      5-min Rain = 0
KTIS 071340Z 21014G19KT 26/16 A3004 RMK A01 T02560156  RH  056%=      5-min Rain = 0
KTIS 071345Z 22013G19KT 26/16 A3005 RMK A01 T02590157  RH  056%=      5-min Rain = 0
KTIS 071350Z 22014G20KT 26/16 A3005 RMK A01 T02610157  RH  055%=      5-min Rain = 0
KTIS 071355Z 22017G23KT 26/16 A3005 RMK A01 T02610155  RH  055%=      5-min Rain = 0
KTIS 071400Z 22019KT 26/15 A3005 RMK A01 T02600154  RH  055%=      5-min Rain = 0
KTIS 071405Z 22020G25KT 26/15 A3005 RMK A01 T02600154  RH  055%=      5-min Rain = 0
KTIS 071410Z 21019G24KT 26/16 A3005 RMK A01 T02590155  RH  055%=      5-min Rain = 0
KTIS 071415Z 22018KT 26/16 A3005 RMK A01 T02600156  RH  055%=      5-min Rain = 0
KTIS 071420Z 21017KT 26/16 A3005 RMK A01 T02600155  RH  055%=      5-min Rain = 0
KTIS 071425Z 21016KT 26/16 A3005 RMK A01 T02560155  RH  056%=      5-min Rain = 0
KTIS 071430Z 21015G20KT 26/16 A3005 RMK A01 T02570156  RH  056%=      5-min Rain = 0
KTIS 071435Z 21015G20KT 26/16 A3005 RMK A01 T02610158  RH  055%=      5-min Rain = 0
KTIS 071440Z 21017G22KT 27/16 A3005 RMK A01 T02650159  RH  054%=      5-min Rain = 0
KTIS 071445Z 21019G24KT 27/16 A3005 RMK A01 T02670157  RH  053%=      5-min Rain = 0
KTIS 071450Z 21019KT 27/16 A3006 RMK A01 T02690158  RH  053%=      5-min Rain = 0
KTIS 071455Z 21017KT 27/16 A3006 RMK A01 T02720159  RH  052%=      5-min Rain = 0
KTIS 071500Z 22020G25KT 27/16 A3006 RMK A01 T02730158  RH  052%=      5-min Rain = 0
KTIS 071505Z 21019G26KT 27/16 A3005 RMK A01 T02740157  RH  051%=      5-min Rain = 0
KTIS 071510Z 22019G24KT 28/16 A3005 RMK A01 T02780157  RH  050%=      5-min Rain = 0
KTIS 071515Z 21017G23KT 28/16 A3005 RMK A01 T02800159  RH  050%=      5-min Rain = 0
KTIS 071520Z 21020KT 28/16 A3005 RMK A01 T02800157  RH  050%=      5-min Rain = 0
KTIS 071525Z 21018G23KT 28/16 A3005 RMK A01 T02820160  RH  050%=      5-min Rain = 0
KTIS 071530Z 22018G25KT 28/16 A3005 RMK A01 T02840158  RH  049%=      5-min Rain = 0
KTIS 071535Z 22020G26KT 29/16 A3005 RMK A01 T02870157  RH  048%=      5-min Rain = 0
KTIS 071540Z 22021G26KT 29/16 A3005 RMK A01 T02870156  RH  047%=      5-min Rain = 0
KTIS 071545Z 21018G23KT 29/16 A3005 RMK A01 T02900158  RH  047%=      5-min Rain = 0
KTIS 071550Z 21020G25KT 29/16 A3005 RMK A01 T02900158  RH  047%=      5-min Rain = 0
KTIS 071555Z 20020KT 29/16 A3005 RMK A01 T02910158  RH  047%=      5-min Rain = 0
KTIS 071600Z 20019KT 29/16 A3005 RMK A01 T02930159  RH  046%=      5-min Rain = 0
KTIS 071605Z 21017G23KT 30/16 A3005 RMK A01 T02960160  RH  046%=      5-min Rain = 0
KTIS 071610Z 20017G23KT 30/16 A3005 RMK A01 T03000159  RH  045%=      5-min Rain = 0
KTIS 071615Z 21018G24KT 30/16 A3005 RMK A01 T03010160  RH  045%=      5-min Rain = 0
KTIS 071620Z 21018G23KT 30/16 A3005 RMK A01 T03000159  RH  045%=      5-min Rain = 0
KTIS 071625Z 20019G24KT 30/16 A3005 RMK A01 T03010161  RH  045%=      5-min Rain = 0
KTIS 071630Z 21017G22KT 30/16 A3005 RMK A01 T03040161  RH  044%=      5-min Rain = 0
KTIS 071635Z 21017G23KT 31/16 A3005 RMK A01 T03090161  RH  043%=      5-min Rain = 0
KTIS 071640Z 21016G21KT 31/16 A3005 RMK A01 T03090161  RH  043%=      5-min Rain = 0
KTIS 071645Z 21019G24KT 31/16 A3005 RMK A01 T03120159  RH  042%=      5-min Rain = 0
KTIS 071650Z 21018G23KT 31/16 A3005 RMK A01 T03130156  RH  041%=      5-min Rain = 0
KTIS 071655Z 21017G22KT 32/16 A3005 RMK A01 T03150155  RH  040%=      5-min Rain = 0
KTIS 071700Z 21017G22KT 32/16 A3005 RMK A01 T03190158  RH  040%=      5-min Rain = 0
KTIS 071705Z 20018KT 32/16 A3005 RMK A01 T03190155  RH  039%=      5-min Rain = 0
KTIS 071710Z 19017KT 32/16 A3005 RMK A01 T03200157  RH  039%=      5-min Rain = 0
KTIS 071715Z 21016G21KT 33/16 A3005 RMK A01 T03250156  RH  038%=      5-min Rain = 0
KTIS 071720Z 20016G21KT 33/16 A3005 RMK A01 T03260157  RH  038%=      5-min Rain = 0
KTIS 071725Z 20016G23KT 33/16 A3005 RMK A01 T03270156  RH  037%=      5-min Rain = 0
KTIS 071730Z 20017KT 33/16 A3005 RMK A01 T03260156  RH  038%=      5-min Rain = 0
KTIS 071735Z 20016G21KT 33/16 A3005 RMK A01 T03290158  RH  037%=      5-min Rain = 0
KTIS 071740Z 20016G22KT 33/15 A3005 RMK A01 T03310154  RH  036%=      5-min Rain = 0
KTIS 071745Z 21016KT 33/16 A3005 RMK A01 T03340155  RH  036%=      5-min Rain = 0
KTIS 071750Z 21015G20KT 34/15 A3004 RMK A01 T03350154  RH  035%=      5-min Rain = 0
KTIS 071755Z 20016G24KT 34/16 A3004 RMK A01 T03370159  RH  036%=      5-min Rain = 0
KTIS 071800Z 19017G23KT 34/16 A3004 RMK A01 T03350158  RH  036%=      5-min Rain = 0
KTIS 071805Z 20016G21KT 34/16 A3004 RMK A01 T03380157  RH  036%=      5-min Rain = 0
KTIS 071810Z 19016KT 34/16 A3004 RMK A01 T03390158  RH  036%=      5-min Rain = 0
KTIS 071815Z 19016G23KT 34/16 A3004 RMK A01 T03370155  RH  035%=      5-min Rain = 0
KTIS 071820Z 20015G23KT 34/16 A3004 RMK A01 T03380156  RH  035%=      5-min Rain = 0
KTIS 071825Z 19015G20KT 34/16 A3003 RMK A01 T03400156  RH  035%=      5-min Rain = 0
KTIS 071830Z 21015G23KT 34/15 A3003 RMK A01 T03410153  RH  034%=      5-min Rain = 0
KTIS 071835Z 20015G21KT 35/15 A3003 RMK A01 T03450153  RH  033%=      5-min Rain = 0
KTIS 071840Z 21015G20KT 35/16 A3003 RMK A01 T03510155  RH  033%=      5-min Rain = 0
KTIS 071845Z 20014KT 35/16 A3003 RMK A01 T03490155  RH  033%=      5-min Rain = 0
KTIS 071850Z 21015G20KT 35/15 A3003 RMK A01 T03530154  RH  032%=      5-min Rain = 0
KTIS 071855Z 21014G24KT 35/16 A3003 RMK A01 T03540157  RH  032%=      5-min Rain = 0
KTIS 071900Z 20015G21KT 35/15 A3003 RMK A01 T03460153  RH  033%=      5-min Rain = 0
KTIS 071905Z 20015G21KT 35/16 A3003 RMK A01 T03450155  RH  034%=      5-min Rain = 0
KTIS 071910Z 19015G20KT 34/16 A3003 RMK A01 T03410155  RH  034%=      5-min Rain = 0
KTIS 071915Z 20014KT 34/15 A3003 RMK A01 T03430154  RH  034%=      5-min Rain = 0
KTIS 071920Z 20015KT 34/15 A3003 RMK A01 T03430154  RH  034%=      5-min Rain = 0
KTIS 071925Z 21012KT 34/16 A3003 RMK A01 T03440157  RH  034%=      5-min Rain = 0
KTIS 071930Z 20014G19KT 35/15 A3003 RMK A01 T03490154  RH  033%=      5-min Rain = 0
KTIS 071935Z 21014G20KT 35/15 A3002 RMK A01 T03480152  RH  032%=      5-min Rain = 0
KTIS 071940Z 20014KT 35/15 A3002 RMK A01 T03500154  RH  033%=      5-min Rain = 0
KTIS 071945Z 20014G20KT 35/16 A3002 RMK A01 T03540156  RH  032%=      5-min Rain = 0
KTIS 071950Z 21014G19KT 36/15 A3002 RMK A01 T03620153  RH  030%=      5-min Rain = 0
KTIS 071955Z 20017G22KT 36/16 A3002 RMK A01 T03590157  RH  032%=      5-min Rain = 0
KTIS 072000Z 19017G23KT 36/16 A3002 RMK A01 T03570155  RH  031%=      5-min Rain = 0
KTIS 072005Z 18016G22KT 36/16 A3002 RMK A01 T03560160  RH  033%=      5-min Rain = 0
KTIS 072010Z 18018G25KT 36/16 A3002 RMK A01 T03550155  RH  032%=      5-min Rain = 0
KTIS 072015Z 19016G22KT 36/15 A3002 RMK A01 T03580154  RH  031%=      5-min Rain = 0
KTIS 072020Z 18017G23KT 36/15 A3002 RMK A01 T03570153  RH  031%=      5-min Rain = 0
KTIS 072025Z 18015G21KT 35/15 A3002 RMK A01 T03540153  RH  032%=      5-min Rain = 0
KTIS 072030Z 18013KT 36/15 A3002 RMK A01 T03560152  RH  031%=      5-min Rain = 0
KTIS 072035Z 18014G22KT 36/15 A3001 RMK A01 T03580151  RH  031%=      5-min Rain = 0
KTIS 072040Z 19016G22KT 36/15 A3001 RMK A01 T03580149  RH  030%=      5-min Rain = 0
KTIS 072045Z 19016G21KT 36/15 A3001 RMK A01 T03590149  RH  030%=      5-min Rain = 0
KTIS 072050Z 20014G26KT 36/15 A3001 RMK A01 T03620147  RH  029%=      5-min Rain = 0
KTIS 072055Z 18016G22KT 36/15 A3001 RMK A01 T03600147  RH  029%=      5-min Rain = 0
KTIS 072100Z 17018G24KT 36/15 A3001 RMK A01 T03560145  RH  030%=      5-min Rain = 0
KTIS 072105Z 19014G21KT 36/14 A3001 RMK A01 T03610141  RH  028%=      5-min Rain = 0
KTIS 072110Z 18016KT 36/14 A3001 RMK A01 T03600142  RH  028%=      5-min Rain = 0
KTIS 072115Z 18015G20KT 36/15 A3001 RMK A01 T03580145  RH  029%=      5-min Rain = 0
KTIS 072120Z 17014G19KT 36/15 A3001 RMK A01 T03570147  RH  030%=      5-min Rain = 0
KTIS 072125Z 17015G23KT 36/15 A3001 RMK A01 T03610149  RH  030%=      5-min Rain = 0
KTIS 072130Z 18017G23KT 36/15 A30 RMK A01 T03620145  RH  029%=      5-min Rain = 0
KTIS 072135Z 20014G24KT 36/14 A30 RMK A01 T03640141  RH  028%=      5-min Rain = 0
KTIS 072140Z 19018G23KT 36/14 A30 RMK A01 T03570136  RH  028%=      5-min Rain = 0
KTIS 072145Z 18017G22KT 36/14 A30 RMK A01 T03580139  RH  028%=      5-min Rain = 0
KTIS 072150Z 20016G21KT 36/14 A30 RMK A01 T03580138  RH  028%=      5-min Rain = 0
KTIS 072155Z 20016KT 35/13 A30 RMK A01 T03530134  RH  028%=      5-min Rain = 0
KTIS 072200Z 19017G22KT 35/13 A30 RMK A01 T03500132  RH  028%=      5-min Rain = 0
KTIS 072205Z 19016G21KT 35/13 A30 RMK A01 T03490133  RH  028%=      5-min Rain = 0
KTIS 072210Z 20016KT 35/13 A30 RMK A01 T03480133  RH  029%=      5-min Rain = 0
KTIS 072215Z 19015KT 35/13 A30 RMK A01 T03470131  RH  028%=      5-min Rain = 0
KTIS 072220Z 19016KT 35/13 A30 RMK A01 T03470130  RH  028%=      5-min Rain = 0
KTIS 072225Z 19017KT 35/14 A30 RMK A01 T03460137  RH  030%=      5-min Rain = 0
KTIS 072230Z 19015G20KT 35/14 A30 RMK A01 T03450138  RH  030%=      5-min Rain = 0
KTIS 072235Z 19014G19KT 34/14 A30 RMK A01 T03440140  RH  031%=      5-min Rain = 0
KTIS 072240Z 19015KT 34/14 A30 RMK A01 T03440142  RH  031%=      5-min Rain = 0
KTIS 072245Z 19015KT 34/14 A30 RMK A01 T03440141  RH  031%=      5-min Rain = 0
KTIS 072250Z 19015KT 34/14 A30 RMK A01 T03440139  RH  030%=      5-min Rain = 0
KTIS 072255Z 20015KT 34/13 A30 RMK A01 T03440131  RH  029%=      5-min Rain = 0
KTIS 072300Z 19014KT 34/13 A30 RMK A01 T03430130  RH  029%=      5-min Rain = 0
KTIS 072305Z 19014KT 34/13 A30 RMK A01 T03430133  RH  029%=      5-min Rain = 0
KTIS 072310Z 19013KT 34/14 A30 RMK A01 T03420136  RH  030%=      5-min Rain = 0
KTIS 072315Z 19014KT 34/14 A30 RMK A01 T03420137  RH  030%=      5-min Rain = 0
KTIS 072320Z 19014G20KT 34/13 A30 RMK A01 T03420134  RH  030%=      5-min Rain = 0
KTIS 072325Z 20012KT 34/14 A30 RMK A01 T03400136  RH  030%=      5-min Rain = 0
KTIS 072330Z 20015KT 34/13 A30 RMK A01 T03400128  RH  029%=      5-min Rain = 0
KTIS 072335Z 20014G19KT 34/13 A30 RMK A01 T03390127  RH  029%=      5-min Rain = 0
KTIS 072340Z 20012G17KT 34/13 A30 RMK A01 T03390129  RH  029%=      5-min Rain = 0
KTIS 072345Z 20015KT 34/13 A30 RMK A01 T03390127  RH  029%=      5-min Rain = 0
KTIS 072350Z 20013KT 34/13 A30 RMK A01 T03380128  RH  029%=      5-min Rain = 0
KTIS 072355Z 20012KT 34/13 A30 RMK A01 T03370127  RH  029%=      5-min Rain = 0
KTIS 080000Z 20012KT 34/12 A30 RMK A01 T03370124  RH  029%=      5-min Rain = 0
KTIS 080005Z 20011KT 34/13 A30 RMK A01 T03360125  RH  029%=      5-min Rain = 0
KTIS 080010Z 20012KT 34/12 A30 RMK A01 T03350123  RH  029%=      5-min Rain = 0
KTIS 080015Z 20012KT 34/12 A30 RMK A01 T03350123  RH  029%=      5-min Rain = 0
KTIS 080020Z 20012KT 34/12 A30 RMK A01 T03350122  RH  029%=      5-min Rain = 0
KTIS 080025Z 19012KT 33/12 A30 RMK A01 T03330124  RH  029%=      5-min Rain = 0
KTIS 080030Z 19010KT 33/13 A30 RMK A01 T03320126  RH  030%=      5-min Rain = 0
KTIS 080035Z 19011KT 33/13 A30 RMK A01 T03320125  RH  030%=      5-min Rain = 0
KTIS 080040Z 19010KT 33/13 A3001 RMK A01 T03320125  RH  030%=      5-min Rain = 0
KTIS 080045Z 19011KT 33/13 A3001 RMK A01 T03330126  RH  030%=      5-min Rain = 0
KTIS 080050Z 19010KT 33/13 A3001 RMK A01 T03320127  RH  030%=      5-min Rain = 0
KTIS 080055Z 19009KT 33/13 A3001 RMK A01 T03300128  RH  030%=      5-min Rain = 0
KTIS 080100Z 19009KT 33/13 A3002 RMK A01 T03290129  RH  031%=      5-min Rain = 0
KTIS 080105Z 20008KT 33/13 A3002 RMK A01 T03280130  RH  031%=      5-min Rain = 0
KTIS 080110Z 20008KT 33/13 A3002 RMK A01 T03270132  RH  032%=      5-min Rain = 0
KTIS 080115Z 20007KT 33/13 A3002 RMK A01 T03250133  RH  033%=      5-min Rain = 0
KTIS 080120Z 21006KT 32/13 A3002 RMK A01 T03230134  RH  033%=      5-min Rain = 0
KTIS 080125Z 21007KT 32/13 A3003 RMK A01 T03220133  RH  033%=      5-min Rain = 0
KTIS 080130Z 19007KT 32/13 A3003 RMK A01 T03200134  RH  034%=      5-min Rain = 0
KTIS 080135Z 20006KT 32/14 A3003 RMK A01 T03170136  RH  035%=      5-min Rain = 0
KTIS 080140Z 19004KT 31/14 A3003 RMK A01 T03140137  RH  036%=      5-min Rain = 0
KTIS 080145Z 19004KT 31/14 A3003 RMK A01 T03130138  RH  036%=      5-min Rain = 0
KTIS 080150Z 18004KT 31/14 A3003 RMK A01 T03090141  RH  038%=      5-min Rain = 0
KTIS 080155Z 18004KT 30/15 A3003 RMK A01 T03040146  RH  040%=      5-min Rain = 0
KTIS 080200Z 19004KT 30/14 A3004 RMK A01 T03030143  RH  039%=      5-min Rain = 0
KTIS 080205Z 23003KT 30/14 A3004 RMK A01 T03040140  RH  039%=      5-min Rain = 0
KTIS 080210Z 28004KT 30/14 A3004 RMK A01 T03020143  RH  040%=      5-min Rain = 0
KTIS 080215Z 30007KT 30/15 A3005 RMK A01 T02980146  RH  041%=      5-min Rain = 0
KTIS 080220Z 30008KT 30/15 A3005 RMK A01 T02950147  RH  042%=      5-min Rain = 0
KTIS 080225Z 29008KT 29/15 A3006 RMK A01 T02920147  RH  043%=      5-min Rain = 0
KTIS 080230Z 26006KT 30/15 A3006 RMK A01 T02970145  RH  041%=      5-min Rain = 0
KTIS 080235Z 28005KT 30/14 A3006 RMK A01 T03020142  RH  040%=      5-min Rain = 0
KTIS 080240Z 23006KT 30/14 A3006 RMK A01 T03030138  RH  038%=      5-min Rain = 0
KTIS 080245Z 21004KT 31/14 A3007 RMK A01 T03070137  RH  037%=      5-min Rain = 0
KTIS 080250Z 23005KT 31/14 A3007 RMK A01 T03080139  RH  037%=      5-min Rain = 0
KTIS 080255Z 30007KT 29/14 A3007 RMK A01 T02940139  RH  040%=      5-min Rain = 0
KTIS 080300Z 32007KT 29/13 A3008 RMK A01 T02940127  RH  037%=      5-min Rain = 0
KTIS 080305Z 29007KT 29/13 A3008 RMK A01 T02920129  RH  038%=      5-min Rain = 0
KTIS 080310Z 28007G12KT 29/13 A3009 RMK A01 T02870129  RH  039%=      5-min Rain = 0
KTIS 080315Z 30008KT 28/13 A3009 RMK A01 T02820128  RH  040%=      5-min Rain = 0
KTIS 080320Z 30007KT 28/13 A3009 RMK A01 T02780131  RH  042%=      5-min Rain = 0
KTIS 080325Z 27005KT 28/13 A301 RMK A01 T02760131  RH  042%=      5-min Rain = 0
KTIS 080330Z 25005KT 28/13 A301 RMK A01 T02790131  RH  042%=      5-min Rain = 0
KTIS 080335Z 23008KT 28/13 A301 RMK A01 T02840128  RH  040%=      5-min Rain = 0
KTIS 080340Z 23010KT 29/13 A301 RMK A01 T02870126  RH  038%=      5-min Rain = 0
KTIS 080345Z 23010KT 28/14 A301 RMK A01 T02830136  RH  042%=      5-min Rain = 0
KTIS 080350Z 23010KT 28/14 A301 RMK A01 T02770141  RH  045%=      5-min Rain = 0
KTIS 080355Z 23012KT 28/14 A301 RMK A01 T02780138  RH  044%=      5-min Rain = 0
KTIS 080400Z 24011KT 28/14 A301 RMK A01 T02780138  RH  044%=      5-min Rain = 0
KTIS 080405Z 25012KT 28/14 A301 RMK A01 T02790135  RH  043%=      5-min Rain = 0
KTIS 080410Z 26011KT 28/13 A301 RMK A01 T02820133  RH  041%=      5-min Rain = 0
KTIS 080415Z 25012KT 28/13 A301 RMK A01 T02840131  RH  041%=      5-min Rain = 0
KTIS 080420Z 25012KT 28/13 A3011 RMK A01 T02830131  RH  041%=      5-min Rain = 0
KTIS 080425Z 24013KT 28/13 A3011 RMK A01 T02810134  RH  042%=      5-min Rain = 0
KTIS 080430Z 23016KT 28/14 A3011 RMK A01 T02750135  RH  044%=      5-min Rain = 0
KTIS 080435Z 23014KT 27/14 A3011 RMK A01 T02690137  RH  046%=      5-min Rain = 0
KTIS 080440Z 23013KT 26/14 A3011 RMK A01 T02630139  RH  048%=      5-min Rain = 0
KTIS 080445Z 24013KT 26/14 A3012 RMK A01 T02590141  RH  050%=      5-min Rain = 0
KTIS 080450Z 24011KT 25/14 A3012 RMK A01 T02540143  RH  052%=      5-min Rain = 0
KTIS 080455Z 26009KT 25/15 A3012 RMK A01 T02510145  RH  054%=      5-min Rain = 0

Page generated in 0.0166 seconds.